sensor_id;sensor_type;location;lat;lon;timestamp;P1;P2;P0
63707;PMS5003;67643;-34.198;22.084;2023-04-01T00:00:54;6;4;
63707;PMS5003;67643;-34.198;22.084;2023-04-01T00:03:23;5;5;
63707;PMS5003;67643;-34.198;22.084;2023-04-01T00:05:53;9;8;
63707;PMS5003;67643;-34.198;22.084;2023-04-01T00:08:23;4;4;
63707;PMS5003;67643;-34.198;22.084;2023-04-01T00:10:54;5;5;
63707;PMS5003;67643;-34.198;22.084;2023-04-01T00:13:23;5;5;
63707;PMS5003;67643;-34.198;22.084;2023-04-01T00:15:52;4;4;
63707;PMS5003;67643;-34.198;22.084;2023-04-01T00:18:22;6;3;
63707;PMS5003;67643;-34.198;22.084;2023-04-01T00:20:51;4;4;
63707;PMS5003;67643;-34.198;22.084;2023-04-01T00:23:20;5;5;
63707;PMS5003;67643;-34.198;22.084;2023-04-01T00:25:48;7;4;
63707;PMS5003;67643;-34.198;22.084;2023-04-01T00:28:17;4;3;
63707;PMS5003;67643;-34.198;22.084;2023-04-01T00:30:46;3;3;
63707;PMS5003;67643;-34.198;22.084;2023-04-01T00:33:15;4;4;
63707;PMS5003;67643;-34.198;22.084;2023-04-01T00:35:43;6;3;
63707;PMS5003;67643;-34.198;22.084;2023-04-01T00:38:13;3;3;
63707;PMS5003;67643;-34.198;22.084;2023-04-01T00:40:42;4;3;
63707;PMS5003;67643;-34.198;22.084;2023-04-01T00:43:13;3;3;
63707;PMS5003;67643;-34.198;22.084;2023-04-01T00:45:43;2;2;
63707;PMS5003;67643;-34.198;22.084;2023-04-01T00:48:14;6;4;
63707;PMS5003;67643;-34.198;22.084;2023-04-01T00:50:46;3;3;
63707;PMS5003;67643;-34.198;22.084;2023-04-01T00:53:18;3;2;
63707;PMS5003;67643;-34.198;22.084;2023-04-01T00:55:50;2;2;
63707;PMS5003;67643;-34.198;22.084;2023-04-01T00:58:24;3;3;
63707;PMS5003;67643;-34.198;22.084;2023-04-01T01:00:56;3;3;
63707;PMS5003;67643;-34.198;22.084;2023-04-01T01:03:26;2;2;
63707;PMS5003;67643;-34.198;22.084;2023-04-01T01:06:05;2;2;
63707;PMS5003;67643;-34.198;22.084;2023-04-01T01:08:46;5;3;
63707;PMS5003;67643;-34.198;22.084;2023-04-01T01:11:26;4;3;
63707;PMS5003;67643;-34.198;22.084;2023-04-01T01:14:04;2;2;
63707;PMS5003;67643;-34.198;22.084;2023-04-01T01:16:39;4;2;
63707;PMS5003;67643;-34.198;22.084;2023-04-01T01:19:19;1;1;
63707;PMS5003;67643;-34.198;22.084;2023-04-01T01:22:11;2;2;
63707;PMS5003;67643;-34.198;22.084;2023-04-01T01:24:59;3;1;
63707;PMS5003;67643;-34.198;22.084;2023-04-01T01:27:39;3;3;
63707;PMS5003;67643;-34.198;22.084;2023-04-01T01:30:20;3;3;
63707;PMS5003;67643;-34.198;22.084;2023-04-01T01:33:08;2;2;
63707;PMS5003;67643;-34.198;22.084;2023-04-01T01:35:53;3;3;
63707;PMS5003;67643;-34.198;22.084;2023-04-01T01:38:24;0;0;
63707;PMS5003;67643;-34.198;22.084;2023-04-01T01:40:58;5;3;
63707;PMS5003;67643;-34.198;22.084;2023-04-01T01:43:30;3;3;
63707;PMS5003;67643;-34.198;22.084;2023-04-01T01:46:04;2;2;
63707;PMS5003;67643;-34.198;22.084;2023-04-01T01:48:36;3;3;
63707;PMS5003;67643;-34.198;22.084;2023-04-01T01:51:07;4;2;
63707;PMS5003;67643;-34.198;22.084;2023-04-01T01:53:35;2;2;
63707;PMS5003;67643;-34.198;22.084;2023-04-01T01:56:05;8;3;
63707;PMS5003;67643;-34.198;22.084;2023-04-01T01:58:34;2;2;
63707;PMS5003;67643;-34.198;22.084;2023-04-01T04:10:04;3;3;
63707;PMS5003;67643;-34.198;22.084;2023-04-01T04:12:34;3;3;
63707;PMS5003;67643;-34.198;22.084;2023-04-01T04:15:02;2;2;
63707;PMS5003;67643;-34.198;22.084;2023-04-01T04:17:31;3;3;
63707;PMS5003;67643;-34.198;22.084;2023-04-01T04:20:00;1;1;
63707;PMS5003;67643;-34.198;22.084;2023-04-01T04:22:29;6;3;
63707;PMS5003;67643;-34.198;22.084;2023-04-01T04:24:58;6;3;
63707;PMS5003;67643;-34.198;22.084;2023-04-01T04:27:26;4;4;
63707;PMS5003;67643;-34.198;22.084;2023-04-01T04:29:55;3;3;
63707;PMS5003;67643;-34.198;22.084;2023-04-01T04:32:24;3;3;
63707;PMS5003;67643;-34.198;22.084;2023-04-01T04:34:52;3;3;
63707;PMS5003;67643;-34.198;22.084;2023-04-01T04:37:21;4;4;
63707;PMS5003;67643;-34.198;22.084;2023-04-01T04:39:50;2;2;
63707;PMS5003;67643;-34.198;22.084;2023-04-01T04:42:23;2;1;
63707;PMS5003;67643;-34.198;22.084;2023-04-01T04:44:52;6;3;
63707;PMS5003;67643;-34.198;22.084;2023-04-01T04:47:21;4;4;
63707;PMS5003;67643;-34.198;22.084;2023-04-01T04:49:49;5;2;
63707;PMS5003;67643;-34.198;22.084;2023-04-01T04:52:17;4;4;
63707;PMS5003;67643;-34.198;22.084;2023-04-01T04:54:46;4;3;
63707;PMS5003;67643;-34.198;22.084;2023-04-01T04:57:14;3;2;
63707;PMS5003;67643;-34.198;22.084;2023-04-01T04:59:43;5;3;
63707;PMS5003;67643;-34.198;22.084;2023-04-01T05:02:12;2;2;
63707;PMS5003;67643;-34.198;22.084;2023-04-01T05:04:40;2;2;
63707;PMS5003;67643;-34.198;22.084;2023-04-01T05:07:08;3;3;
63707;PMS5003;67643;-34.198;22.084;2023-04-01T05:09:37;3;1;
63707;PMS5003;67643;-34.198;22.084;2023-04-01T05:12:06;2;2;
63707;PMS5003;67643;-34.198;22.084;2023-04-01T05:14:35;7;0;
63707;PMS5003;67643;-34.198;22.084;2023-04-01T05:17:03;5;2;
63707;PMS5003;67643;-34.198;22.084;2023-04-01T05:19:35;2;2;
63707;PMS5003;67643;-34.198;22.084;2023-04-01T05:22:03;2;2;
63707;PMS5003;67643;-34.198;22.084;2023-04-01T05:24:33;5;3;
63707;PMS5003;67643;-34.198;22.084;2023-04-01T05:27:01;3;3;
63707;PMS5003;67643;-34.198;22.084;2023-04-01T05:29:30;3;3;
63707;PMS5003;67643;-34.198;22.084;2023-04-01T05:31:59;8;7;
63707;PMS5003;67643;-34.198;22.084;2023-04-01T05:34:27;9;7;
63707;PMS5003;67643;-34.198;22.084;2023-04-01T05:36:56;9;6;
63707;PMS5003;67643;-34.198;22.084;2023-04-01T05:39:25;8;7;
63707;PMS5003;67643;-34.198;22.084;2023-04-01T05:41:53;14;10;
63707;PMS5003;67643;-34.198;22.084;2023-04-01T05:44:22;12;11;
63707;PMS5003;67643;-34.198;22.084;2023-04-01T05:46:51;14;11;
63707;PMS5003;67643;-34.198;22.084;2023-04-01T05:49:19;10;10;
63707;PMS5003;67643;-34.198;22.084;2023-04-01T05:51:47;14;12;
63707;PMS5003;67643;-34.198;22.084;2023-04-01T05:54:16;11;9;
63707;PMS5003;67643;-34.198;22.084;2023-04-01T05:56:44;14;12;
63707;PMS5003;67643;-34.198;22.084;2023-04-01T05:59:13;16;13;
63707;PMS5003;67643;-34.198;22.084;2023-04-01T06:01:42;12;12;
63707;PMS5003;67643;-34.198;22.084;2023-04-01T06:04:14;17;14;
63707;PMS5003;67643;-34.198;22.084;2023-04-01T06:06:44;19;14;
63707;PMS5003;67643;-34.198;22.084;2023-04-01T06:09:14;15;14;
63707;PMS5003;67643;-34.198;22.084;2023-04-01T06:11:50;15;13;
63707;PMS5003;67643;-34.198;22.084;2023-04-01T06:14:31;19;14;
63707;PMS5003;67643;-34.198;22.084;2023-04-01T06:17:18;22;18;
63707;PMS5003;67643;-34.198;22.084;2023-04-01T06:19:54;22;20;
63707;PMS5003;67643;-34.198;22.084;2023-04-01T06:22:37;26;20;
63707;PMS5003;67643;-34.198;22.084;2023-04-01T06:25:50;24;21;
63707;PMS5003;67643;-34.198;22.084;2023-04-01T06:28:35;18;15;
63707;PMS5003;67643;-34.198;22.084;2023-04-01T06:31:19;22;22;
63707;PMS5003;67643;-34.198;22.084;2023-04-01T06:34:00;20;15;
63707;PMS5003;67643;-34.198;22.084;2023-04-01T06:36:47;18;17;
63707;PMS5003;67643;-34.198;22.084;2023-04-01T06:39:28;18;14;
63707;PMS5003;67643;-34.198;22.084;2023-04-01T06:42:09;19;12;
63707;PMS5003;67643;-34.198;22.084;2023-04-01T06:44:52;80;73;
63707;PMS5003;67643;-34.198;22.084;2023-04-01T06:47:33;108;93;
63707;PMS5003;67643;-34.198;22.084;2023-04-01T06:50:15;84;73;
63707;PMS5003;67643;-34.198;22.084;2023-04-01T06:52:54;67;57;
63707;PMS5003;67643;-34.198;22.084;2023-04-01T06:55:31;67;56;
63707;PMS5003;67643;-34.198;22.084;2023-04-01T06:58:06;60;47;
63707;PMS5003;67643;-34.198;22.084;2023-04-01T07:00:46;52;44;
63707;PMS5003;67643;-34.198;22.084;2023-04-01T07:03:20;66;56;
63707;PMS5003;67643;-34.198;22.084;2023-04-01T07:05:57;69;54;
63707;PMS5003;67643;-34.198;22.084;2023-04-01T07:08:30;46;39;
63707;PMS5003;67643;-34.198;22.084;2023-04-01T07:11:04;45;38;
63707;PMS5003;67643;-34.198;22.084;2023-04-01T07:13:34;41;36;
63707;PMS5003;67643;-34.198;22.084;2023-04-01T07:16:11;36;34;
63707;PMS5003;67643;-34.198;22.084;2023-04-01T07:18:44;45;34;
63707;PMS5003;67643;-34.198;22.084;2023-04-01T07:21:22;36;29;
63707;PMS5003;67643;-34.198;22.084;2023-04-01T07:23:57;37;31;
63707;PMS5003;67643;-34.198;22.084;2023-04-01T07:26:31;34;25;
63707;PMS5003;67643;-34.198;22.084;2023-04-01T07:28:59;26;19;
63707;PMS5003;67643;-34.198;22.084;2023-04-01T07:31:32;27;23;
63707;PMS5003;67643;-34.198;22.084;2023-04-01T07:34:09;31;25;
63707;PMS5003;67643;-34.198;22.084;2023-04-01T07:36:47;32;23;
63707;PMS5003;67643;-34.198;22.084;2023-04-01T07:39:25;35;26;
63707;PMS5003;67643;-34.198;22.084;2023-04-01T07:42:04;41;25;
63707;PMS5003;67643;-34.198;22.084;2023-04-01T07:44:41;27;23;
63707;PMS5003;67643;-34.198;22.084;2023-04-01T07:47:20;32;25;
63707;PMS5003;67643;-34.198;22.084;2023-04-01T07:50:02;25;20;
63707;PMS5003;67643;-34.198;22.084;2023-04-01T07:52:46;26;20;
63707;PMS5003;67643;-34.198;22.084;2023-04-01T07:55:22;31;20;
63707;PMS5003;67643;-34.198;22.084;2023-04-01T07:57:58;16;14;
63707;PMS5003;67643;-34.198;22.084;2023-04-01T08:00:33;18;12;
63707;PMS5003;67643;-34.198;22.084;2023-04-01T08:03:15;11;10;
63707;PMS5003;67643;-34.198;22.084;2023-04-01T08:05:57;13;9;
63707;PMS5003;67643;-34.198;22.084;2023-04-01T08:08:32;13;8;
63707;PMS5003;67643;-34.198;22.084;2023-04-01T08:11:15;13;10;
63707;PMS5003;67643;-34.198;22.084;2023-04-01T08:13:58;12;6;
63707;PMS5003;67643;-34.198;22.084;2023-04-01T08:16:38;8;6;
63707;PMS5003;67643;-34.198;22.084;2023-04-01T08:19:16;15;7;
63707;PMS5003;67643;-34.198;22.084;2023-04-01T08:21:57;11;7;
63707;PMS5003;67643;-34.198;22.084;2023-04-01T08:24:32;5;4;
63707;PMS5003;67643;-34.198;22.084;2023-04-01T08:27:06;7;5;
63707;PMS5003;67643;-34.198;22.084;2023-04-01T08:29:46;11;8;
63707;PMS5003;67643;-34.198;22.084;2023-04-01T08:32:20;6;4;
63707;PMS5003;67643;-34.198;22.084;2023-04-01T08:34:58;8;4;
63707;PMS5003;67643;-34.198;22.084;2023-04-01T08:37:38;5;4;
63707;PMS5003;67643;-34.198;22.084;2023-04-01T08:40:16;5;5;
63707;PMS5003;67643;-34.198;22.084;2023-04-01T08:43:43;8;3;
63707;PMS5003;67643;-34.198;22.084;2023-04-01T08:47:06;3;3;
63707;PMS5003;67643;-34.198;22.084;2023-04-01T08:50:00;3;2;
63707;PMS5003;67643;-34.198;22.084;2023-04-01T08:52:44;4;3;
63707;PMS5003;67643;-34.198;22.084;2023-04-01T08:55:31;5;4;
63707;PMS5003;67643;-34.198;22.084;2023-04-01T08:58:34;1;1;
63707;PMS5003;67643;-34.198;22.084;2023-04-01T09:04:15;8;3;
63707;PMS5003;67643;-34.198;22.084;2023-04-01T09:06:55;3;3;
63707;PMS5003;67643;-34.198;22.084;2023-04-01T09:10:11;4;3;
63707;PMS5003;67643;-34.198;22.084;2023-04-01T09:13:01;7;2;
63707;PMS5003;67643;-34.198;22.084;2023-04-01T09:15:50;2;2;
63707;PMS5003;67643;-34.198;22.084;2023-04-01T09:18:40;3;3;
63707;PMS5003;67643;-34.198;22.084;2023-04-01T09:21:25;3;2;
63707;PMS5003;67643;-34.198;22.084;2023-04-01T09:26:22;4;3;
63707;PMS5003;67643;-34.198;22.084;2023-04-01T09:29:09;4;3;
63707;PMS5003;67643;-34.198;22.084;2023-04-01T09:31:52;2;2;
63707;PMS5003;67643;-34.198;22.084;2023-04-01T09:34:43;4;2;
63707;PMS5003;67643;-34.198;22.084;2023-04-01T09:37:21;3;2;
63707;PMS5003;67643;-34.198;22.084;2023-04-01T09:40:13;7;3;
63707;PMS5003;67643;-34.198;22.084;2023-04-01T09:42:50;5;1;
63707;PMS5003;67643;-34.198;22.084;2023-04-01T09:45:37;5;3;
63707;PMS5003;67643;-34.198;22.084;2023-04-01T09:48:16;2;2;
63707;PMS5003;67643;-34.198;22.084;2023-04-01T09:51:00;2;2;
63707;PMS5003;67643;-34.198;22.084;2023-04-01T09:53:39;2;0;
63707;PMS5003;67643;-34.198;22.084;2023-04-01T09:56:43;2;1;
63707;PMS5003;67643;-34.198;22.084;2023-04-01T12:18:33;5;3;
63707;PMS5003;67643;-34.198;22.084;2023-04-01T12:21:11;4;4;
63707;PMS5003;67643;-34.198;22.084;2023-04-01T12:23:58;7;4;
63707;PMS5003;67643;-34.198;22.084;2023-04-01T12:26:43;4;2;
63707;PMS5003;67643;-34.198;22.084;2023-04-01T12:29:28;6;3;
63707;PMS5003;67643;-34.198;22.084;2023-04-01T12:32:23;2;2;
63707;PMS5003;67643;-34.198;22.084;2023-04-01T12:35:00;7;4;
63707;PMS5003;67643;-34.198;22.084;2023-04-01T12:37:42;3;3;
63707;PMS5003;67643;-34.198;22.084;2023-04-01T12:40:20;3;3;
63707;PMS5003;67643;-34.198;22.084;2023-04-01T12:43:01;2;2;
63707;PMS5003;67643;-34.198;22.084;2023-04-01T12:45:43;2;2;
63707;PMS5003;67643;-34.198;22.084;2023-04-01T12:48:26;2;2;
63707;PMS5003;67643;-34.198;22.084;2023-04-01T12:51:08;4;4;
63707;PMS5003;67643;-34.198;22.084;2023-04-01T12:53:58;11;8;
63707;PMS5003;67643;-34.198;22.084;2023-04-01T12:55:32;11;8;
63707;PMS5003;67643;-34.198;22.084;2023-04-01T12:58:15;12;12;
63707;PMS5003;67643;-34.198;22.084;2023-04-01T13:00:39;12;12;
63707;PMS5003;67643;-34.198;22.084;2023-04-01T13:03:22;12;12;
63707;PMS5003;67643;-34.198;22.084;2023-04-01T13:06:16;14;14;
63707;PMS5003;67643;-34.198;22.084;2023-04-01T13:08:50;18;15;
63707;PMS5003;67643;-34.198;22.084;2023-04-01T13:11:27;20;13;
63707;PMS5003;67643;-34.198;22.084;2023-04-01T13:14:20;14;10;
63707;PMS5003;67643;-34.198;22.084;2023-04-01T13:17:03;15;12;
63707;PMS5003;67643;-34.198;22.084;2023-04-01T13:19:43;15;11;
63707;PMS5003;67643;-34.198;22.084;2023-04-01T13:22:20;11;11;
63707;PMS5003;67643;-34.198;22.084;2023-04-01T13:24:57;18;11;
63707;PMS5003;67643;-34.198;22.084;2023-04-01T13:27:34;13;11;
63707;PMS5003;67643;-34.198;22.084;2023-04-01T13:30:13;16;12;
63707;PMS5003;67643;-34.198;22.084;2023-04-01T13:32:54;14;14;
63707;PMS5003;67643;-34.198;22.084;2023-04-01T13:35:31;13;12;
63707;PMS5003;67643;-34.198;22.084;2023-04-01T13:38:20;13;12;
63707;PMS5003;67643;-34.198;22.084;2023-04-01T13:41:10;10;9;
63707;PMS5003;67643;-34.198;22.084;2023-04-01T13:43:55;10;10;
63707;PMS5003;67643;-34.198;22.084;2023-04-01T13:46:41;13;9;
63707;PMS5003;67643;-34.198;22.084;2023-04-01T13:49:32;8;8;
63707;PMS5003;67643;-34.198;22.084;2023-04-01T13:52:17;8;8;
63707;PMS5003;67643;-34.198;22.084;2023-04-01T13:55:20;13;9;
63707;PMS5003;67643;-34.198;22.084;2023-04-01T13:58:03;8;7;
63707;PMS5003;67643;-34.198;22.084;2023-04-01T14:00:46;6;6;
63707;PMS5003;67643;-34.198;22.084;2023-04-01T14:03:28;6;6;
63707;PMS5003;67643;-34.198;22.084;2023-04-01T14:06:09;11;8;
63707;PMS5003;67643;-34.198;22.084;2023-04-01T14:08:51;8;8;
63707;PMS5003;67643;-34.198;22.084;2023-04-01T14:11:36;8;6;
63707;PMS5003;67643;-34.198;22.084;2023-04-01T14:14:15;9;9;
63707;PMS5003;67643;-34.198;22.084;2023-04-01T14:17:04;8;8;
63707;PMS5003;67643;-34.198;22.084;2023-04-01T14:19:46;6;6;
63707;PMS5003;67643;-34.198;22.084;2023-04-01T14:22:29;7;6;
63707;PMS5003;67643;-34.198;22.084;2023-04-01T14:25:20;5;5;
63707;PMS5003;67643;-34.198;22.084;2023-04-01T14:28:01;13;11;
63707;PMS5003;67643;-34.198;22.084;2023-04-01T14:30:41;7;5;
63707;PMS5003;67643;-34.198;22.084;2023-04-01T14:33:22;7;5;
63707;PMS5003;67643;-34.198;22.084;2023-04-01T14:36:04;11;8;
63707;PMS5003;67643;-34.198;22.084;2023-04-01T14:38:47;9;5;
63707;PMS5003;67643;-34.198;22.084;2023-04-01T14:41:29;7;4;
63707;PMS5003;67643;-34.198;22.084;2023-04-01T14:44:17;6;4;
63707;PMS5003;67643;-34.198;22.084;2023-04-01T14:47:04;4;4;
63707;PMS5003;67643;-34.198;22.084;2023-04-01T14:50:04;5;5;
63707;PMS5003;67643;-34.198;22.084;2023-04-01T14:52:40;5;4;
63707;PMS5003;67643;-34.198;22.084;2023-04-01T14:55:24;5;3;
63707;PMS5003;67643;-34.198;22.084;2023-04-01T14:57:59;4;3;
63707;PMS5003;67643;-34.198;22.084;2023-04-01T15:00:43;4;4;
63707;PMS5003;67643;-34.198;22.084;2023-04-01T15:03:19;5;4;
63707;PMS5003;67643;-34.198;22.084;2023-04-01T15:05:56;5;4;
63707;PMS5003;67643;-34.198;22.084;2023-04-01T15:08:35;4;4;
63707;PMS5003;67643;-34.198;22.084;2023-04-01T15:11:16;5;5;
63707;PMS5003;67643;-34.198;22.084;2023-04-01T15:14:00;7;5;
63707;PMS5003;67643;-34.198;22.084;2023-04-01T15:16:55;7;3;
63707;PMS5003;67643;-34.198;22.084;2023-04-01T15:19:37;5;5;
63707;PMS5003;67643;-34.198;22.084;2023-04-01T15:22:24;4;4;
63707;PMS5003;67643;-34.198;22.084;2023-04-01T15:25:09;3;3;
63707;PMS5003;67643;-34.198;22.084;2023-04-01T15:27:50;10;4;
63707;PMS5003;67643;-34.198;22.084;2023-04-01T15:30:30;6;6;
63707;PMS5003;67643;-34.198;22.084;2023-04-01T15:33:25;7;5;
63707;PMS5003;67643;-34.198;22.084;2023-04-01T15:36:06;7;4;
63707;PMS5003;67643;-34.198;22.084;2023-04-01T15:38:48;4;4;
63707;PMS5003;67643;-34.198;22.084;2023-04-01T15:41:20;11;7;
63707;PMS5003;67643;-34.198;22.084;2023-04-01T15:43:53;8;7;
63707;PMS5003;67643;-34.198;22.084;2023-04-01T15:46:26;7;5;
63707;PMS5003;67643;-34.198;22.084;2023-04-01T15:49:11;7;5;
63707;PMS5003;67643;-34.198;22.084;2023-04-01T15:51:56;7;6;
63707;PMS5003;67643;-34.198;22.084;2023-04-01T15:54:54;7;6;
63707;PMS5003;67643;-34.198;22.084;2023-04-01T15:57:41;3;3;
63707;PMS5003;67643;-34.198;22.084;2023-04-01T16:00:21;5;3;
63707;PMS5003;67643;-34.198;22.084;2023-04-01T16:02:57;5;3;
63707;PMS5003;67643;-34.198;22.084;2023-04-01T16:06:06;6;6;
63707;PMS5003;67643;-34.198;22.084;2023-04-01T16:08:48;8;5;
63707;PMS5003;67643;-34.198;22.084;2023-04-01T16:11:30;7;7;
63707;PMS5003;67643;-34.198;22.084;2023-04-01T16:14:12;6;5;
63707;PMS5003;67643;-34.198;22.084;2023-04-01T16:16:56;7;4;
63707;PMS5003;67643;-34.198;22.084;2023-04-01T16:19:43;13;6;
63707;PMS5003;67643;-34.198;22.084;2023-04-01T16:22:19;7;4;
63707;PMS5003;67643;-34.198;22.084;2023-04-01T16:24:54;4;4;
63707;PMS5003;67643;-34.198;22.084;2023-04-01T16:27:32;5;5;
63707;PMS5003;67643;-34.198;22.084;2023-04-01T16:30:24;5;3;
63707;PMS5003;67643;-34.198;22.084;2023-04-01T16:33:02;11;6;
63707;PMS5003;67643;-34.198;22.084;2023-04-01T16:35:41;5;5;
63707;PMS5003;67643;-34.198;22.084;2023-04-01T16:38:22;4;4;
63707;PMS5003;67643;-34.198;22.084;2023-04-01T16:41:04;4;3;
63707;PMS5003;67643;-34.198;22.084;2023-04-01T16:43:42;6;4;
63707;PMS5003;67643;-34.198;22.084;2023-04-01T16:46:31;5;4;
63707;PMS5003;67643;-34.198;22.084;2023-04-01T16:49:30;5;5;
63707;PMS5003;67643;-34.198;22.084;2023-04-01T16:52:13;4;4;
63707;PMS5003;67643;-34.198;22.084;2023-04-01T16:54:45;7;5;
63707;PMS5003;67643;-34.198;22.084;2023-04-01T16:57:21;8;5;
63707;PMS5003;67643;-34.198;22.084;2023-04-01T16:59:54;4;4;
63707;PMS5003;67643;-34.198;22.084;2023-04-01T17:02:30;6;4;
63707;PMS5003;67643;-34.198;22.084;2023-04-01T17:05:03;5;3;
63707;PMS5003;67643;-34.198;22.084;2023-04-01T17:07:38;6;6;
63707;PMS5003;67643;-34.198;22.084;2023-04-01T17:10:18;5;2;
63707;PMS5003;67643;-34.198;22.084;2023-04-01T17:13:05;7;5;
63707;PMS5003;67643;-34.198;22.084;2023-04-01T17:15:45;5;3;
63707;PMS5003;67643;-34.198;22.084;2023-04-01T17:18:22;6;5;
63707;PMS5003;67643;-34.198;22.084;2023-04-01T17:21:00;7;6;
63707;PMS5003;67643;-34.198;22.084;2023-04-01T17:23:33;5;4;
63707;PMS5003;67643;-34.198;22.084;2023-04-01T17:26:08;5;4;
63707;PMS5003;67643;-34.198;22.084;2023-04-01T17:28:47;3;3;
63707;PMS5003;67643;-34.198;22.084;2023-04-01T17:31:26;4;4;
63707;PMS5003;67643;-34.198;22.084;2023-04-01T17:34:09;4;4;
63707;PMS5003;67643;-34.198;22.084;2023-04-01T17:36:58;8;5;
63707;PMS5003;67643;-34.198;22.084;2023-04-01T17:39:40;4;4;
63707;PMS5003;67643;-34.198;22.084;2023-04-01T17:42:19;5;4;
63707;PMS5003;67643;-34.198;22.084;2023-04-01T17:44:58;6;5;
63707;PMS5003;67643;-34.198;22.084;2023-04-01T17:47:36;7;7;
63707;PMS5003;67643;-34.198;22.084;2023-04-01T17:50:16;7;5;
63707;PMS5003;67643;-34.198;22.084;2023-04-01T17:52:52;6;5;
63707;PMS5003;67643;-34.198;22.084;2023-04-01T17:55:38;6;5;
63707;PMS5003;67643;-34.198;22.084;2023-04-01T17:58:17;5;3;
63707;PMS5003;67643;-34.198;22.084;2023-04-01T18:00:50;4;4;
63707;PMS5003;67643;-34.198;22.084;2023-04-01T20:03:24;8;8;
63707;PMS5003;67643;-34.198;22.084;2023-04-01T20:06:03;7;5;
63707;PMS5003;67643;-34.198;22.084;2023-04-01T20:08:40;5;3;
63707;PMS5003;67643;-34.198;22.084;2023-04-01T20:11:20;6;5;
63707;PMS5003;67643;-34.198;22.084;2023-04-01T20:13:59;5;5;
63707;PMS5003;67643;-34.198;22.084;2023-04-01T20:16:44;3;3;
63707;PMS5003;67643;-34.198;22.084;2023-04-01T20:19:24;7;5;
63707;PMS5003;67643;-34.198;22.084;2023-04-01T20:21:58;5;4;
63707;PMS5003;67643;-34.198;22.084;2023-04-01T20:24:31;7;5;
63707;PMS5003;67643;-34.198;22.084;2023-04-01T20:27:07;6;5;
63707;PMS5003;67643;-34.198;22.084;2023-04-01T20:29:47;7;6;
63707;PMS5003;67643;-34.198;22.084;2023-04-01T20:32:31;7;5;
63707;PMS5003;67643;-34.198;22.084;2023-04-01T20:35:18;5;5;
63707;PMS5003;67643;-34.198;22.084;2023-04-01T20:37:57;7;5;
63707;PMS5003;67643;-34.198;22.084;2023-04-01T20:40:40;4;4;
63707;PMS5003;67643;-34.198;22.084;2023-04-01T20:44:16;5;4;
63707;PMS5003;67643;-34.198;22.084;2023-04-01T20:46:58;4;4;
63707;PMS5003;67643;-34.198;22.084;2023-04-01T20:49:41;8;6;
63707;PMS5003;67643;-34.198;22.084;2023-04-01T20:52:20;6;4;
63707;PMS5003;67643;-34.198;22.084;2023-04-01T20:54:58;4;4;
63707;PMS5003;67643;-34.198;22.084;2023-04-01T20:57:49;3;3;
63707;PMS5003;67643;-34.198;22.084;2023-04-01T21:00:28;5;5;
63707;PMS5003;67643;-34.198;22.084;2023-04-01T21:03:14;6;4;
63707;PMS5003;67643;-34.198;22.084;2023-04-01T21:06:06;4;4;
63707;PMS5003;67643;-34.198;22.084;2023-04-01T21:09:18;3;3;
63707;PMS5003;67643;-34.198;22.084;2023-04-01T21:11:58;4;4;
63707;PMS5003;67643;-34.198;22.084;2023-04-01T21:14:46;7;5;
63707;PMS5003;67643;-34.198;22.084;2023-04-01T21:17:34;4;4;
63707;PMS5003;67643;-34.198;22.084;2023-04-01T21:20:22;4;3;
63707;PMS5003;67643;-34.198;22.084;2023-04-01T21:23:08;5;5;
63707;PMS5003;67643;-34.198;22.084;2023-04-01T21:25:50;3;3;
63707;PMS5003;67643;-34.198;22.084;2023-04-01T21:28:35;3;3;
63707;PMS5003;67643;-34.198;22.084;2023-04-01T21:31:21;5;3;
63707;PMS5003;67643;-34.198;22.084;2023-04-01T21:34:06;5;5;
63707;PMS5003;67643;-34.198;22.084;2023-04-01T21:36:59;6;5;
63707;PMS5003;67643;-34.198;22.084;2023-04-01T21:39:44;4;2;
63707;PMS5003;67643;-34.198;22.084;2023-04-01T21:42:26;3;1;
63707;PMS5003;67643;-34.198;22.084;2023-04-01T21:45:21;5;3;
63707;PMS5003;67643;-34.198;22.084;2023-04-01T21:50:19;6;6;
63707;PMS5003;67643;-34.198;22.084;2023-04-01T21:53:19;4;2;
63707;PMS5003;67643;-34.198;22.084;2023-04-01T21:58:40;3;3;
63707;PMS5003;67643;-34.198;22.084;2023-04-01T22:01:48;4;3;
63707;PMS5003;67643;-34.198;22.084;2023-04-01T22:04:38;2;1;
63707;PMS5003;67643;-34.198;22.084;2023-04-01T22:07:16;3;3;
63707;PMS5003;67643;-34.198;22.084;2023-04-01T22:09:50;3;3;
63707;PMS5003;67643;-34.198;22.084;2023-04-01T22:12:28;6;3;
63707;PMS5003;67643;-34.198;22.084;2023-04-01T22:15:05;4;3;
63707;PMS5003;67643;-34.198;22.084;2023-04-01T22:17:45;3;3;
63707;PMS5003;67643;-34.198;22.084;2023-04-01T22:20:21;5;3;
63707;PMS5003;67643;-34.198;22.084;2023-04-01T22:22:59;5;3;
63707;PMS5003;67643;-34.198;22.084;2023-04-01T22:25:39;4;2;
63707;PMS5003;67643;-34.198;22.084;2023-04-01T22:28:14;4;2;
63707;PMS5003;67643;-34.198;22.084;2023-04-01T22:30:49;2;2;
63707;PMS5003;67643;-34.198;22.084;2023-04-01T22:33:21;2;2;
63707;PMS5003;67643;-34.198;22.084;2023-04-01T22:35:59;3;3;
63707;PMS5003;67643;-34.198;22.084;2023-04-01T22:38:37;4;1;
63707;PMS5003;67643;-34.198;22.084;2023-04-01T22:41:18;2;2;
63707;PMS5003;67643;-34.198;22.084;2023-04-01T22:43:55;7;2;
63707;PMS5003;67643;-34.198;22.084;2023-04-01T22:46:28;4;3;
63707;PMS5003;67643;-34.198;22.084;2023-04-01T22:49:09;2;2;
63707;PMS5003;67643;-34.198;22.084;2023-04-01T22:51:45;3;3;
63707;PMS5003;67643;-34.198;22.084;2023-04-01T22:54:20;2;2;
63707;PMS5003;67643;-34.198;22.084;2023-04-01T22:56:56;1;1;
63707;PMS5003;67643;-34.198;22.084;2023-04-01T22:59:30;4;4;
63707;PMS5003;67643;-34.198;22.084;2023-04-01T23:02:06;2;2;
63707;PMS5003;67643;-34.198;22.084;2023-04-01T23:04:41;4;4;
63707;PMS5003;67643;-34.198;22.084;2023-04-01T23:07:19;5;3;
63707;PMS5003;67643;-34.198;22.084;2023-04-01T23:10:03;3;3;
63707;PMS5003;67643;-34.198;22.084;2023-04-01T23:12:41;3;2;
63707;PMS5003;67643;-34.198;22.084;2023-04-01T23:15:11;2;2;
63707;PMS5003;67643;-34.198;22.084;2023-04-01T23:17:47;3;3;
63707;PMS5003;67643;-34.198;22.084;2023-04-01T23:20:30;3;2;
63707;PMS5003;67643;-34.198;22.084;2023-04-01T23:23:20;2;2;
63707;PMS5003;67643;-34.198;22.084;2023-04-01T23:26:00;4;2;
63707;PMS5003;67643;-34.198;22.084;2023-04-01T23:28:43;1;1;
63707;PMS5003;67643;-34.198;22.084;2023-04-01T23:31:32;3;3;
63707;PMS5003;67643;-34.198;22.084;2023-04-01T23:34:03;0;0;
63707;PMS5003;67643;-34.198;22.084;2023-04-01T23:36:48;3;3;
63707;PMS5003;67643;-34.198;22.084;2023-04-01T23:39:21;3;2;
63707;PMS5003;67643;-34.198;22.084;2023-04-01T23:41:54;2;1;
63707;PMS5003;67643;-34.198;22.084;2023-04-01T23:44:26;3;2;
63707;PMS5003;67643;-34.198;22.084;2023-04-01T23:46:57;1;1;
63707;PMS5003;67643;-34.198;22.084;2023-04-01T23:49:30;1;1;
63707;PMS5003;67643;-34.198;22.084;2023-04-01T23:52:03;2;2;
63707;PMS5003;67643;-34.198;22.084;2023-04-01T23:54:41;4;2;
63707;PMS5003;67643;-34.198;22.084;2023-04-01T23:57:15;1;1;
